sensor_id;sensor_type;location;lat;lon;timestamp;P1;durP1;ratioP1;P2;durP2;ratioP2
26562;SDS011;14217;50.986;5.826;2023-06-14T00:01:41;1.75;;;1.40;;
26562;SDS011;14217;50.986;5.826;2023-06-14T00:06:43;8.63;;;1.63;;
26562;SDS011;14217;50.986;5.826;2023-06-14T00:11:50;2.15;;;1.45;;
26562;SDS011;14217;50.986;5.826;2023-06-14T00:16:52;1.83;;;1.40;;
26562;SDS011;14217;50.986;5.826;2023-06-14T00:21:54;1.70;;;1.60;;
26562;SDS011;14217;50.986;5.826;2023-06-14T00:26:56;1.50;;;1.13;;
26562;SDS011;14217;50.986;5.826;2023-06-14T00:31:59;1.55;;;1.45;;
26562;SDS011;14217;50.986;5.826;2023-06-14T00:37:01;1.10;;;1.00;;
26562;SDS011;14217;50.986;5.826;2023-06-14T00:42:03;3.00;;;1.50;;
26562;SDS011;14217;50.986;5.826;2023-06-14T00:47:06;4.50;;;1.38;;
26562;SDS011;14217;50.986;5.826;2023-06-14T00:52:08;2.30;;;1.30;;
26562;SDS011;14217;50.986;5.826;2023-06-14T00:57:13;1.33;;;1.23;;
26562;SDS011;14217;50.986;5.826;2023-06-14T01:02:16;1.20;;;1.08;;
26562;SDS011;14217;50.986;5.826;2023-06-14T01:17:40;1.70;;;1.33;;
26562;SDS011;14217;50.986;5.826;2023-06-14T01:22:51;3.53;;;1.70;;
26562;SDS011;14217;50.986;5.826;2023-06-14T01:27:55;2.75;;;1.30;;
26562;SDS011;14217;50.986;5.826;2023-06-14T01:33:03;1.52;;;1.20;;
26562;SDS011;14217;50.986;5.826;2023-06-14T01:38:06;3.90;;;1.80;;
26562;SDS011;14217;50.986;5.826;2023-06-14T01:43:09;2.55;;;1.45;;
26562;SDS011;14217;50.986;5.826;2023-06-14T01:48:13;2.03;;;1.75;;
26562;SDS011;14217;50.986;5.826;2023-06-14T01:53:16;4.32;;;1.20;;
26562;SDS011;14217;50.986;5.826;2023-06-14T01:58:18;1.42;;;1.05;;
26562;SDS011;14217;50.986;5.826;2023-06-14T02:03:20;2.00;;;1.35;;
26562;SDS011;14217;50.986;5.826;2023-06-14T02:08:23;1.70;;;1.60;;
26562;SDS011;14217;50.986;5.826;2023-06-14T02:13:25;4.10;;;1.30;;
26562;SDS011;14217;50.986;5.826;2023-06-14T02:18:27;2.30;;;1.13;;
26562;SDS011;14217;50.986;5.826;2023-06-14T02:23:29;2.30;;;1.63;;
26562;SDS011;14217;50.986;5.826;2023-06-14T02:28:35;5.47;;;1.92;;
26562;SDS011;14217;50.986;5.826;2023-06-14T02:33:37;1.88;;;1.60;;
26562;SDS011;14217;50.986;5.826;2023-06-14T02:38:39;1.75;;;1.48;;
26562;SDS011;14217;50.986;5.826;2023-06-14T02:43:42;1.98;;;1.70;;
26562;SDS011;14217;50.986;5.826;2023-06-14T02:48:44;2.40;;;1.65;;
26562;SDS011;14217;50.986;5.826;2023-06-14T02:53:46;2.03;;;1.60;;
26562;SDS011;14217;50.986;5.826;2023-06-14T02:58:49;1.83;;;1.48;;
26562;SDS011;14217;50.986;5.826;2023-06-14T03:03:52;1.65;;;1.30;;
26562;SDS011;14217;50.986;5.826;2023-06-14T03:08:54;2.38;;;2.10;;
26562;SDS011;14217;50.986;5.826;2023-06-14T03:13:56;2.20;;;1.23;;
26562;SDS011;14217;50.986;5.826;2023-06-14T03:18:58;2.03;;;1.83;;
26562;SDS011;14217;50.986;5.826;2023-06-14T03:24:00;1.50;;;1.40;;
26562;SDS011;14217;50.986;5.826;2023-06-14T03:29:05;1.70;;;1.60;;
26562;SDS011;14217;50.986;5.826;2023-06-14T03:34:07;1.60;;;1.50;;
26562;SDS011;14217;50.986;5.826;2023-06-14T03:39:09;1.77;;;1.67;;
26562;SDS011;14217;50.986;5.826;2023-06-14T03:44:11;1.65;;;1.55;;
26562;SDS011;14217;50.986;5.826;2023-06-14T03:49:13;1.80;;;1.35;;
26562;SDS011;14217;50.986;5.826;2023-06-14T03:54:15;1.42;;;1.33;;
26562;SDS011;14217;50.986;5.826;2023-06-14T03:59:37;2.05;;;1.95;;
26562;SDS011;14217;50.986;5.826;2023-06-14T04:04:39;1.83;;;1.70;;
26562;SDS011;14217;50.986;5.826;2023-06-14T04:09:45;3.10;;;1.85;;
26562;SDS011;14217;50.986;5.826;2023-06-14T04:14:47;2.70;;;2.05;;
26562;SDS011;14217;50.986;5.826;2023-06-14T04:19:50;2.15;;;1.95;;
26562;SDS011;14217;50.986;5.826;2023-06-14T04:24:52;3.88;;;1.92;;
26562;SDS011;14217;50.986;5.826;2023-06-14T04:30:05;2.40;;;2.20;;
26562;SDS011;14217;50.986;5.826;2023-06-14T04:35:08;2.28;;;1.88;;
26562;SDS011;14217;50.986;5.826;2023-06-14T04:40:12;1.98;;;1.75;;
26562;SDS011;14217;50.986;5.826;2023-06-14T04:45:14;1.98;;;1.85;;
26562;SDS011;14217;50.986;5.826;2023-06-14T04:50:17;2.03;;;1.80;;
26562;SDS011;14217;50.986;5.826;2023-06-14T04:55:19;2.30;;;2.10;;
26562;SDS011;14217;50.986;5.826;2023-06-14T05:00:22;2.05;;;1.85;;
26562;SDS011;14217;50.986;5.826;2023-06-14T05:05:25;2.33;;;2.13;;
26562;SDS011;14217;50.986;5.826;2023-06-14T05:10:27;3.55;;;1.90;;
26562;SDS011;14217;50.986;5.826;2023-06-14T05:15:29;2.45;;;1.75;;
26562;SDS011;14217;50.986;5.826;2023-06-14T05:20:31;2.10;;;1.90;;
26562;SDS011;14217;50.986;5.826;2023-06-14T05:25:33;2.25;;;1.75;;
26562;SDS011;14217;50.986;5.826;2023-06-14T05:30:35;1.70;;;1.60;;
26562;SDS011;14217;50.986;5.826;2023-06-14T05:35:38;1.67;;;1.58;;
26562;SDS011;14217;50.986;5.826;2023-06-14T05:40:40;1.85;;;1.67;;
26562;SDS011;14217;50.986;5.826;2023-06-14T05:45:42;2.03;;;1.40;;
26562;SDS011;14217;50.986;5.826;2023-06-14T05:50:45;1.98;;;1.58;;
26562;SDS011;14217;50.986;5.826;2023-06-14T05:55:47;1.75;;;1.65;;
26562;SDS011;14217;50.986;5.826;2023-06-14T06:00:49;1.92;;;1.48;;
26562;SDS011;14217;50.986;5.826;2023-06-14T06:05:52;2.00;;;1.52;;
26562;SDS011;14217;50.986;5.826;2023-06-14T06:10:54;1.85;;;1.50;;
26562;SDS011;14217;50.986;5.826;2023-06-14T06:15:56;2.33;;;2.13;;
26562;SDS011;14217;50.986;5.826;2023-06-14T06:20:58;5.90;;;2.75;;
26562;SDS011;14217;50.986;5.826;2023-06-14T06:26:00;4.55;;;3.22;;
26562;SDS011;14217;50.986;5.826;2023-06-14T06:31:02;10.25;;;3.53;;
26562;SDS011;14217;50.986;5.826;2023-06-14T06:36:05;3.95;;;3.60;;
26562;SDS011;14217;50.986;5.826;2023-06-14T06:41:08;4.78;;;2.97;;
26562;SDS011;14217;50.986;5.826;2023-06-14T06:46:10;8.52;;;2.80;;
26562;SDS011;14217;50.986;5.826;2023-06-14T06:51:12;3.53;;;2.72;;
26562;SDS011;14217;50.986;5.826;2023-06-14T06:56:14;7.93;;;3.13;;
26562;SDS011;14217;50.986;5.826;2023-06-14T07:01:17;8.43;;;2.78;;
26562;SDS011;14217;50.986;5.826;2023-06-14T07:06:20;4.78;;;2.63;;
26562;SDS011;14217;50.986;5.826;2023-06-14T07:11:23;3.13;;;2.53;;
26562;SDS011;14217;50.986;5.826;2023-06-14T07:16:24;4.53;;;2.53;;
26562;SDS011;14217;50.986;5.826;2023-06-14T07:21:27;4.82;;;3.42;;
26562;SDS011;14217;50.986;5.826;2023-06-14T07:26:29;6.00;;;2.28;;
26562;SDS011;14217;50.986;5.826;2023-06-14T07:31:31;2.17;;;1.98;;
26562;SDS011;14217;50.986;5.826;2023-06-14T07:36:33;5.97;;;3.03;;
26562;SDS011;14217;50.986;5.826;2023-06-14T07:41:36;3.72;;;2.20;;
26562;SDS011;14217;50.986;5.826;2023-06-14T07:46:38;6.00;;;2.88;;
26562;SDS011;14217;50.986;5.826;2023-06-14T07:51:40;4.00;;;2.33;;
26562;SDS011;14217;50.986;5.826;2023-06-14T07:56:42;5.72;;;2.35;;
26562;SDS011;14217;50.986;5.826;2023-06-14T08:01:45;6.50;;;2.85;;
26562;SDS011;14217;50.986;5.826;2023-06-14T08:06:48;3.80;;;3.28;;
26562;SDS011;14217;50.986;5.826;2023-06-14T08:11:51;5.13;;;2.55;;
26562;SDS011;14217;50.986;5.826;2023-06-14T08:16:53;3.47;;;2.47;;
26562;SDS011;14217;50.986;5.826;2023-06-14T08:21:55;3.30;;;2.40;;
26562;SDS011;14217;50.986;5.826;2023-06-14T08:26:57;4.53;;;2.67;;
26562;SDS011;14217;50.986;5.826;2023-06-14T08:32:03;3.40;;;2.55;;
26562;SDS011;14217;50.986;5.826;2023-06-14T08:37:05;4.40;;;2.05;;
26562;SDS011;14217;50.986;5.826;2023-06-14T08:42:08;4.15;;;2.75;;
26562;SDS011;14217;50.986;5.826;2023-06-14T08:47:24;7.85;;;1.88;;
26562;SDS011;14217;50.986;5.826;2023-06-14T08:52:28;5.00;;;2.60;;
26562;SDS011;14217;50.986;5.826;2023-06-14T08:57:36;2.97;;;2.30;;
26562;SDS011;14217;50.986;5.826;2023-06-14T09:02:39;2.45;;;1.90;;
26562;SDS011;14217;50.986;5.826;2023-06-14T09:07:44;2.85;;;2.22;;
26562;SDS011;14217;50.986;5.826;2023-06-14T09:12:47;3.15;;;2.58;;
26562;SDS011;14217;50.986;5.826;2023-06-14T09:17:49;2.15;;;1.95;;
26562;SDS011;14217;50.986;5.826;2023-06-14T09:22:53;3.53;;;1.88;;
26562;SDS011;14217;50.986;5.826;2023-06-14T09:27:55;3.25;;;1.90;;
26562;SDS011;14217;50.986;5.826;2023-06-14T09:32:57;4.22;;;2.38;;
26562;SDS011;14217;50.986;5.826;2023-06-14T09:38:02;3.97;;;2.05;;
26562;SDS011;14217;50.986;5.826;2023-06-14T09:43:05;3.42;;;1.70;;
26562;SDS011;14217;50.986;5.826;2023-06-14T09:48:12;1.77;;;1.60;;
26562;SDS011;14217;50.986;5.826;2023-06-14T09:53:21;2.40;;;2.03;;
26562;SDS011;14217;50.986;5.826;2023-06-14T09:58:25;2.17;;;1.98;;
26562;SDS011;14217;50.986;5.826;2023-06-14T10:03:30;1.52;;;1.27;;
26562;SDS011;14217;50.986;5.826;2023-06-14T10:08:53;8.02;;;1.80;;
26562;SDS011;14217;50.986;5.826;2023-06-14T10:13:59;3.13;;;2.33;;
26562;SDS011;14217;50.986;5.826;2023-06-14T10:19:04;1.50;;;1.40;;
26562;SDS011;14217;50.986;5.826;2023-06-14T10:24:08;1.92;;;1.35;;
26562;SDS011;14217;50.986;5.826;2023-06-14T10:29:14;1.90;;;1.48;;
26562;SDS011;14217;50.986;5.826;2023-06-14T10:39:26;3.30;;;1.35;;
26562;SDS011;14217;50.986;5.826;2023-06-14T10:49:37;5.13;;;1.70;;
26562;SDS011;14217;50.986;5.826;2023-06-14T10:54:59;1.80;;;0.93;;
26562;SDS011;14217;50.986;5.826;2023-06-14T11:00:07;2.90;;;1.05;;
26562;SDS011;14217;50.986;5.826;2023-06-14T11:05:15;0.70;;;0.70;;
26562;SDS011;14217;50.986;5.826;2023-06-14T11:10:22;1.77;;;0.80;;
26562;SDS011;14217;50.986;5.826;2023-06-14T11:15:30;2.78;;;1.23;;
26562;SDS011;14217;50.986;5.826;2023-06-14T11:20:33;2.33;;;1.67;;
26562;SDS011;14217;50.986;5.826;2023-06-14T11:25:36;2.85;;;1.30;;
26562;SDS011;14217;50.986;5.826;2023-06-14T11:30:41;1.77;;;1.17;;
26562;SDS011;14217;50.986;5.826;2023-06-14T11:35:43;4.13;;;1.15;;
26562;SDS011;14217;50.986;5.826;2023-06-14T11:40:45;1.95;;;1.30;;
26562;SDS011;14217;50.986;5.826;2023-06-14T11:45:48;1.02;;;0.90;;
26562;SDS011;14217;50.986;5.826;2023-06-14T11:51:07;1.83;;;1.20;;
26562;SDS011;14217;50.986;5.826;2023-06-14T11:56:10;2.53;;;0.90;;
26562;SDS011;14217;50.986;5.826;2023-06-14T12:01:19;2.25;;;1.10;;
26562;SDS011;14217;50.986;5.826;2023-06-14T12:06:25;13.38;;;1.13;;
26562;SDS011;14217;50.986;5.826;2023-06-14T12:11:35;1.30;;;0.90;;
26562;SDS011;14217;50.986;5.826;2023-06-14T12:16:38;1.83;;;0.90;;
26562;SDS011;14217;50.986;5.826;2023-06-14T12:21:42;6.25;;;1.02;;
26562;SDS011;14217;50.986;5.826;2023-06-14T12:26:48;1.70;;;1.23;;
26562;SDS011;14217;50.986;5.826;2023-06-14T12:31:54;1.52;;;1.00;;
26562;SDS011;14217;50.986;5.826;2023-06-14T12:36:58;2.50;;;1.13;;
26562;SDS011;14217;50.986;5.826;2023-06-14T12:42:00;1.33;;;1.20;;
26562;SDS011;14217;50.986;5.826;2023-06-14T12:47:05;3.65;;;1.40;;
26562;SDS011;14217;50.986;5.826;2023-06-14T12:52:08;11.10;;;1.40;;
26562;SDS011;14217;50.986;5.826;2023-06-14T12:57:10;2.05;;;1.33;;
26562;SDS011;14217;50.986;5.826;2023-06-14T13:02:16;1.50;;;1.40;;
26562;SDS011;14217;50.986;5.826;2023-06-14T13:07:19;2.72;;;1.17;;
26562;SDS011;14217;50.986;5.826;2023-06-14T13:12:21;8.23;;;1.25;;
26562;SDS011;14217;50.986;5.826;2023-06-14T13:17:23;4.55;;;1.38;;
26562;SDS011;14217;50.986;5.826;2023-06-14T13:22:26;9.38;;;1.13;;
26562;SDS011;14217;50.986;5.826;2023-06-14T13:27:28;2.30;;;1.00;;
26562;SDS011;14217;50.986;5.826;2023-06-14T13:32:30;3.63;;;1.10;;
26562;SDS011;14217;50.986;5.826;2023-06-14T13:37:33;2.55;;;1.00;;
26562;SDS011;14217;50.986;5.826;2023-06-14T13:42:35;3.15;;;1.00;;
26562;SDS011;14217;50.986;5.826;2023-06-14T13:47:37;2.95;;;1.10;;
26562;SDS011;14217;50.986;5.826;2023-06-14T13:52:40;0.95;;;0.88;;
26562;SDS011;14217;50.986;5.826;2023-06-14T13:57:42;1.77;;;0.70;;
26562;SDS011;14217;50.986;5.826;2023-06-14T14:02:45;1.95;;;0.77;;
26562;SDS011;14217;50.986;5.826;2023-06-14T14:07:47;3.40;;;0.82;;
26562;SDS011;14217;50.986;5.826;2023-06-14T14:12:49;1.83;;;0.70;;
26562;SDS011;14217;50.986;5.826;2023-06-14T14:17:52;2.03;;;0.75;;
26562;SDS011;14217;50.986;5.826;2023-06-14T14:22:56;0.55;;;0.50;;
26562;SDS011;14217;50.986;5.826;2023-06-14T14:27:58;1.15;;;0.77;;
26562;SDS011;14217;50.986;5.826;2023-06-14T14:33:00;1.05;;;0.70;;
26562;SDS011;14217;50.986;5.826;2023-06-14T14:38:02;0.85;;;0.75;;
26562;SDS011;14217;50.986;5.826;2023-06-14T14:43:07;0.70;;;0.70;;
26562;SDS011;14217;50.986;5.826;2023-06-14T14:48:09;2.67;;;0.82;;
26562;SDS011;14217;50.986;5.826;2023-06-14T14:53:11;1.02;;;0.50;;
26562;SDS011;14217;50.986;5.826;2023-06-14T14:58:14;1.05;;;0.95;;
26562;SDS011;14217;50.986;5.826;2023-06-14T15:03:20;0.88;;;0.77;;
26562;SDS011;14217;50.986;5.826;2023-06-14T15:08:22;1.08;;;0.80;;
26562;SDS011;14217;50.986;5.826;2023-06-14T15:13:24;0.68;;;0.60;;
26562;SDS011;14217;50.986;5.826;2023-06-14T15:18:26;1.00;;;0.68;;
26562;SDS011;14217;50.986;5.826;2023-06-14T15:23:28;0.85;;;0.80;;
26562;SDS011;14217;50.986;5.826;2023-06-14T15:28:30;0.80;;;0.70;;
26562;SDS011;14217;50.986;5.826;2023-06-14T15:33:34;3.50;;;1.05;;
26562;SDS011;14217;50.986;5.826;2023-06-14T15:38:36;1.27;;;0.95;;
26562;SDS011;14217;50.986;5.826;2023-06-14T15:43:38;1.80;;;0.90;;
26562;SDS011;14217;50.986;5.826;2023-06-14T15:48:40;0.73;;;0.73;;
26562;SDS011;14217;50.986;5.826;2023-06-14T15:53:42;1.77;;;0.70;;
26562;SDS011;14217;50.986;5.826;2023-06-14T15:58:44;1.60;;;1.23;;
26562;SDS011;14217;50.986;5.826;2023-06-14T16:03:46;0.80;;;0.80;;
26562;SDS011;14217;50.986;5.826;2023-06-14T16:08:48;2.85;;;0.80;;
26562;SDS011;14217;50.986;5.826;2023-06-14T16:13:51;1.55;;;0.85;;
26562;SDS011;14217;50.986;5.826;2023-06-14T16:18:53;1.08;;;0.63;;
26562;SDS011;14217;50.986;5.826;2023-06-14T16:23:55;0.50;;;0.50;;
26562;SDS011;14217;50.986;5.826;2023-06-14T16:28:57;0.98;;;0.73;;
26562;SDS011;14217;50.986;5.826;2023-06-14T16:33:58;3.92;;;0.68;;
26562;SDS011;14217;50.986;5.826;2023-06-14T16:39:01;2.63;;;0.88;;
26562;SDS011;14217;50.986;5.826;2023-06-14T16:44:03;9.43;;;0.93;;
26562;SDS011;14217;50.986;5.826;2023-06-14T16:49:06;1.65;;;0.80;;
26562;SDS011;14217;50.986;5.826;2023-06-14T16:54:08;1.80;;;0.90;;
26562;SDS011;14217;50.986;5.826;2023-06-14T16:59:11;1.15;;;0.77;;
26562;SDS011;14217;50.986;5.826;2023-06-14T17:04:13;0.73;;;0.60;;
26562;SDS011;14217;50.986;5.826;2023-06-14T17:09:15;0.60;;;0.60;;
26562;SDS011;14217;50.986;5.826;2023-06-14T17:14:18;4.63;;;0.90;;
26562;SDS011;14217;50.986;5.826;2023-06-14T17:19:20;1.40;;;0.80;;
26562;SDS011;14217;50.986;5.826;2023-06-14T17:24:22;10.15;;;1.13;;
26562;SDS011;14217;50.986;5.826;2023-06-14T17:29:26;1.35;;;0.80;;
26562;SDS011;14217;50.986;5.826;2023-06-14T17:34:28;0.68;;;0.68;;
26562;SDS011;14217;50.986;5.826;2023-06-14T17:39:30;1.08;;;0.98;;
26562;SDS011;14217;50.986;5.826;2023-06-14T17:44:32;1.38;;;1.17;;
26562;SDS011;14217;50.986;5.826;2023-06-14T17:49:34;0.80;;;0.80;;
26562;SDS011;14217;50.986;5.826;2023-06-14T17:54:36;0.80;;;0.80;;
26562;SDS011;14217;50.986;5.826;2023-06-14T17:59:38;4.70;;;1.25;;
26562;SDS011;14217;50.986;5.826;2023-06-14T18:04:41;3.85;;;1.00;;
26562;SDS011;14217;50.986;5.826;2023-06-14T18:09:46;7.07;;;1.33;;
26562;SDS011;14217;50.986;5.826;2023-06-14T18:14:48;1.38;;;0.80;;
26562;SDS011;14217;50.986;5.826;2023-06-14T18:19:50;1.77;;;1.10;;
26562;SDS011;14217;50.986;5.826;2023-06-14T18:24:52;0.98;;;0.90;;
26562;SDS011;14217;50.986;5.826;2023-06-14T18:29:54;2.95;;;1.02;;
26562;SDS011;14217;50.986;5.826;2023-06-14T18:34:57;0.90;;;0.90;;
26562;SDS011;14217;50.986;5.826;2023-06-14T18:39:59;1.30;;;0.98;;
26562;SDS011;14217;50.986;5.826;2023-06-14T18:45:01;1.67;;;1.25;;
26562;SDS011;14217;50.986;5.826;2023-06-14T18:50:04;1.10;;;1.00;;
26562;SDS011;14217;50.986;5.826;2023-06-14T18:55:06;1.67;;;1.38;;
26562;SDS011;14217;50.986;5.826;2023-06-14T19:00:09;1.90;;;0.90;;
26562;SDS011;14217;50.986;5.826;2023-06-14T19:05:11;0.90;;;0.90;;
26562;SDS011;14217;50.986;5.826;2023-06-14T19:10:13;1.30;;;1.05;;
26562;SDS011;14217;50.986;5.826;2023-06-14T19:15:16;1.58;;;1.20;;
26562;SDS011;14217;50.986;5.826;2023-06-14T19:20:19;0.98;;;0.80;;
26562;SDS011;14217;50.986;5.826;2023-06-14T19:25:21;1.00;;;0.98;;
26562;SDS011;14217;50.986;5.826;2023-06-14T19:30:23;1.50;;;0.98;;
26562;SDS011;14217;50.986;5.826;2023-06-14T19:35:25;2.85;;;1.33;;
26562;SDS011;14217;50.986;5.826;2023-06-14T19:40:27;1.20;;;1.10;;
26562;SDS011;14217;50.986;5.826;2023-06-14T19:45:29;1.45;;;0.90;;
26562;SDS011;14217;50.986;5.826;2023-06-14T19:50:34;8.10;;;0.90;;
26562;SDS011;14217;50.986;5.826;2023-06-14T19:55:36;1.17;;;1.08;;
26562;SDS011;14217;50.986;5.826;2023-06-14T20:00:38;2.25;;;1.10;;
26562;SDS011;14217;50.986;5.826;2023-06-14T20:05:41;2.42;;;0.88;;
26562;SDS011;14217;50.986;5.826;2023-06-14T20:10:43;1.65;;;1.20;;
26562;SDS011;14217;50.986;5.826;2023-06-14T20:15:45;1.52;;;1.33;;
26562;SDS011;14217;50.986;5.826;2023-06-14T20:20:48;3.50;;;1.25;;
26562;SDS011;14217;50.986;5.826;2023-06-14T20:25:51;1.30;;;1.17;;
26562;SDS011;14217;50.986;5.826;2023-06-14T20:30:53;2.47;;;1.38;;
26562;SDS011;14217;50.986;5.826;2023-06-14T20:35:55;2.70;;;1.50;;
26562;SDS011;14217;50.986;5.826;2023-06-14T20:40:58;1.52;;;1.15;;
26562;SDS011;14217;50.986;5.826;2023-06-14T20:46:00;0.77;;;0.75;;
26562;SDS011;14217;50.986;5.826;2023-06-14T20:51:03;1.83;;;1.40;;
26562;SDS011;14217;50.986;5.826;2023-06-14T20:56:05;1.27;;;1.17;;
26562;SDS011;14217;50.986;5.826;2023-06-14T21:01:08;2.53;;;1.35;;
26562;SDS011;14217;50.986;5.826;2023-06-14T21:06:10;2.08;;;1.35;;
26562;SDS011;14217;50.986;5.826;2023-06-14T21:11:11;1.13;;;0.90;;
26562;SDS011;14217;50.986;5.826;2023-06-14T21:16:13;1.23;;;1.13;;
26562;SDS011;14217;50.986;5.826;2023-06-14T21:21:17;1.88;;;1.20;;
26562;SDS011;14217;50.986;5.826;2023-06-14T21:26:19;1.25;;;1.00;;
26562;SDS011;14217;50.986;5.826;2023-06-14T21:31:24;4.55;;;1.02;;
26562;SDS011;14217;50.986;5.826;2023-06-14T21:36:29;7.85;;;1.20;;
26562;SDS011;14217;50.986;5.826;2023-06-14T21:41:33;1.70;;;1.10;;
26562;SDS011;14217;50.986;5.826;2023-06-14T21:46:39;1.67;;;1.27;;
26562;SDS011;14217;50.986;5.826;2023-06-14T21:51:41;0.73;;;0.73;;
26562;SDS011;14217;50.986;5.826;2023-06-14T21:56:43;1.58;;;1.15;;
26562;SDS011;14217;50.986;5.826;2023-06-14T22:01:46;4.97;;;1.00;;
26562;SDS011;14217;50.986;5.826;2023-06-14T22:06:48;1.58;;;0.93;;
26562;SDS011;14217;50.986;5.826;2023-06-14T22:11:50;6.40;;;1.20;;
26562;SDS011;14217;50.986;5.826;2023-06-14T22:16:52;2.35;;;0.90;;
26562;SDS011;14217;50.986;5.826;2023-06-14T22:21:54;2.47;;;1.10;;
26562;SDS011;14217;50.986;5.826;2023-06-14T22:26:59;0.80;;;0.80;;
26562;SDS011;14217;50.986;5.826;2023-06-14T22:32:01;0.70;;;0.70;;
26562;SDS011;14217;50.986;5.826;2023-06-14T22:37:03;1.88;;;0.93;;
26562;SDS011;14217;50.986;5.826;2023-06-14T22:42:06;2.63;;;0.90;;
26562;SDS011;14217;50.986;5.826;2023-06-14T22:47:08;1.10;;;0.77;;
26562;SDS011;14217;50.986;5.826;2023-06-14T22:52:11;2.78;;;1.15;;
26562;SDS011;14217;50.986;5.826;2023-06-14T22:57:15;0.50;;;0.50;;
26562;SDS011;14217;50.986;5.826;2023-06-14T23:02:18;0.82;;;0.73;;
26562;SDS011;14217;50.986;5.826;2023-06-14T23:07:20;2.40;;;0.80;;
26562;SDS011;14217;50.986;5.826;2023-06-14T23:12:23;1.10;;;0.95;;
26562;SDS011;14217;50.986;5.826;2023-06-14T23:17:26;1.30;;;0.77;;
26562;SDS011;14217;50.986;5.826;2023-06-14T23:22:35;1.85;;;0.98;;
26562;SDS011;14217;50.986;5.826;2023-06-14T23:27:43;0.90;;;0.77;;
26562;SDS011;14217;50.986;5.826;2023-06-14T23:32:47;1.63;;;0.80;;
26562;SDS011;14217;50.986;5.826;2023-06-14T23:37:51;2.42;;;0.77;;
26562;SDS011;14217;50.986;5.826;2023-06-14T23:42:55;2.03;;;0.80;;
26562;SDS011;14217;50.986;5.826;2023-06-14T23:47:58;0.77;;;0.77;;
26562;SDS011;14217;50.986;5.826;2023-06-14T23:53:00;1.88;;;0.70;;
26562;SDS011;14217;50.986;5.826;2023-06-14T23:58:02;0.80;;;0.80;;
